Duck Valley, Nevada
Current Conditions -  °F | °C
As of 11:58 AM on Saturday 25 Oct 2014 (Local Time) from KMUO Reporting Station
Scattered Clouds Scattered Clouds  
Wind Chill: 21°   Ceiling: Unl
Heat Index: 21°   Visibility: 10mi
Dew Point:   Wind: 17mph
Humidity: 31%   Direction: 100°E
Pressure: 29.81"   Gusts: NA
Location:  41.9458°N, 116.094°W
Report Text: KMUO 251858Z AUTO 10015KT 10SM FEW130 SCT180 21/03 A2981 RMK AO2 SLP083 T02080028
Loading
Personal Weather Stations






























Interactive Weather Map
Tropical Storm Tracking
New forecast layout! Learn more

10-Day Weather Forecast

Advertisements
Track Severe Weather on mobile